createdAt,value
2023-02-02T00:02:22.428Z,3.35
2023-02-02T00:04:49.086Z,5.15
2023-02-02T00:07:15.840Z,1.60
2023-02-02T00:09:42.299Z,4.18
2023-02-02T00:12:09.228Z,2.35
2023-02-02T00:14:35.728Z,2.67
2023-02-02T00:17:02.184Z,3.72
2023-02-02T00:19:30.391Z,4.90
2023-02-02T00:21:57.332Z,2.83
2023-02-02T00:24:24.069Z,3.20
2023-02-02T00:26:53.468Z,2.15
2023-02-02T00:29:25.617Z,3.58
2023-02-02T00:31:52.278Z,3.35
2023-02-02T00:34:19.382Z,4.75
2023-02-02T00:36:45.972Z,4.82
2023-02-02T00:39:18.911Z,3.88
2023-02-02T00:41:46.184Z,4.20
2023-02-02T00:44:31.812Z,7.18
2023-02-02T00:46:58.238Z,3.85
2023-02-02T00:49:24.674Z,4.63
2023-02-02T00:51:51.148Z,2.38
2023-02-02T00:54:17.704Z,3.45
2023-02-02T00:56:44.370Z,3.03
2023-02-02T00:59:11.058Z,2.70
2023-02-02T01:01:37.559Z,1.13
2023-02-02T01:04:03.947Z,2.38
2023-02-02T01:06:30.367Z,1.17
2023-02-02T01:08:56.765Z,1.60
2023-02-02T01:11:23.471Z,5.55
2023-02-02T01:13:50.004Z,1.27
2023-02-02T01:16:16.840Z,2.00
2023-02-02T01:18:44.031Z,1.15
2023-02-02T01:21:12.718Z,0.68
2023-02-02T01:23:40.386Z,1.05
2023-02-02T01:26:11.013Z,0.77
2023-02-02T01:28:39.085Z,4.60
2023-02-02T01:31:17.914Z,2.92
2023-02-02T01:33:45.814Z,1.20
2023-02-02T01:36:18.829Z,1.65
2023-02-02T01:38:45.820Z,1.17
2023-02-02T01:41:15.032Z,2.58
2023-02-02T01:43:44.432Z,0.43
2023-02-02T01:46:16.162Z,0.20
2023-02-02T01:48:46.756Z,0.80
2023-02-02T01:51:19.372Z,0.22
2023-02-02T01:53:47.951Z,2.42
2023-02-02T01:56:24.556Z,0.73
2023-02-02T01:58:51.237Z,0.20
2023-02-02T02:01:17.661Z,0.17
2023-02-02T02:03:44.260Z,0.90
2023-02-02T02:06:16.991Z,3.58
2023-02-02T02:08:52.192Z,4.50
2023-02-02T02:11:22.966Z,0.63
2023-02-02T02:14:09.694Z,0.45
2023-02-02T02:16:45.762Z,6.15
2023-02-02T02:19:37.082Z,3.85
2023-02-02T02:22:33.286Z,3.15
2023-02-02T02:25:33.376Z,5.05
2023-02-02T02:28:24.385Z,5.30
2023-02-02T02:31:06.189Z,1.92
2023-02-02T02:33:54.456Z,2.15
2023-02-02T02:36:36.239Z,15.98
2023-02-02T02:39:17.895Z,0.88
2023-02-02T02:41:50.742Z,4.00
2023-02-02T02:44:20.115Z,1.95
2023-02-02T02:46:48.027Z,0.57
2023-02-02T02:49:14.564Z,0.40
2023-02-02T02:51:49.269Z,1.13
2023-02-02T02:54:24.205Z,0.85
2023-02-02T02:57:15.491Z,1.38
2023-02-02T03:00:05.149Z,1.48
2023-02-02T03:02:46.970Z,2.10
2023-02-02T03:05:48.823Z,1.83
2023-02-02T03:08:20.163Z,4.47
2023-02-02T03:10:47.303Z,1.60
2023-02-02T03:13:15.514Z,0.10
2023-02-02T03:15:44.293Z,0.47
2023-02-02T03:18:17.519Z,1.00
2023-02-02T03:20:45.973Z,0.28
2023-02-02T03:23:13.247Z,2.20
2023-02-02T03:25:40.285Z,3.63
2023-02-02T03:28:07.772Z,2.00
2023-02-02T03:30:35.342Z,0.75
2023-02-02T03:33:02.019Z,0.20
2023-02-02T03:35:28.735Z,0.63
2023-02-02T03:37:56.182Z,2.95
2023-02-02T03:40:23.097Z,0.40
2023-02-02T03:42:49.694Z,0.40
2023-02-02T03:45:16.225Z,0.55
2023-02-02T03:47:42.755Z,1.08
2023-02-02T03:50:11.947Z,1.98
2023-02-02T03:52:38.451Z,0.95
2023-02-02T03:55:05.653Z,1.10
2023-02-02T03:57:32.031Z,0.40
2023-02-02T03:59:58.469Z,1.42
2023-02-02T04:02:24.901Z,0.10
2023-02-02T04:04:51.298Z,0.70
2023-02-02T04:07:17.764Z,0.30
2023-02-02T04:09:44.266Z,1.85
2023-02-02T04:12:11.771Z,0.68
2023-02-02T04:14:38.220Z,2.15
2023-02-02T04:17:04.682Z,1.40
2023-02-02T04:19:31.130Z,1.63
2023-02-02T04:21:57.587Z,1.42
2023-02-02T04:24:24.017Z,1.45
2023-02-02T04:26:50.566Z,1.98
2023-02-02T04:29:17.088Z,3.47
2023-02-02T04:31:43.589Z,1.67
2023-02-02T04:34:10.077Z,2.45
2023-02-02T04:36:36.500Z,3.95
2023-02-02T04:39:02.916Z,2.03
2023-02-02T04:41:29.315Z,1.25
2023-02-02T04:43:55.883Z,6.07
2023-02-02T04:46:24.637Z,2.22
2023-02-02T04:48:51.058Z,1.52
2023-02-02T04:51:18.718Z,0.88
2023-02-02T04:53:45.846Z,4.70
2023-02-02T04:56:18.328Z,3.10
2023-02-02T04:58:45.455Z,2.28
2023-02-02T05:01:18.019Z,1.25
2023-02-02T05:03:45.424Z,2.63
2023-02-02T05:06:13.552Z,4.53
2023-02-02T05:08:43.352Z,3.70
2023-02-02T05:11:11.831Z,5.53
2023-02-02T05:13:38.260Z,4.97
2023-02-02T05:16:07.571Z,2.53
2023-02-02T05:18:33.954Z,2.78
2023-02-02T05:21:01.623Z,2.72
2023-02-02T05:23:28.034Z,3.75
2023-02-02T05:25:55.411Z,5.53
2023-02-02T05:28:22.422Z,9.77
2023-02-02T05:30:49.098Z,7.10
2023-02-02T05:33:18.339Z,8.85
2023-02-02T05:35:45.937Z,11.05
2023-02-02T05:38:12.376Z,9.02
2023-02-02T05:40:38.763Z,4.97
2023-02-02T05:43:05.437Z,9.13
2023-02-02T05:45:33.060Z,6.95
2023-02-02T05:47:59.803Z,13.27
2023-02-02T05:50:26.335Z,12.75
2023-02-02T05:52:52.937Z,10.70
2023-02-02T05:55:20.087Z,7.32
2023-02-02T05:57:46.544Z,2.92
2023-02-02T06:00:13.542Z,5.90
2023-02-02T06:02:40.078Z,4.85
2023-02-02T06:05:07.113Z,10.02
2023-02-02T06:07:33.540Z,2.20
2023-02-02T06:09:59.936Z,2.40
2023-02-02T06:12:26.311Z,4.63
2023-02-02T06:15:11.686Z,6.93
2023-02-02T06:17:38.163Z,10.75
2023-02-02T06:20:05.042Z,7.78
2023-02-02T06:22:32.569Z,10.45
2023-02-02T06:24:59.056Z,6.03
2023-02-02T06:27:25.543Z,6.53
2023-02-02T06:29:51.929Z,6.10
2023-02-02T06:32:18.377Z,5.97
2023-02-02T06:34:44.870Z,10.77
2023-02-02T06:37:11.359Z,5.47
2023-02-02T06:39:37.747Z,9.05
2023-02-02T06:42:19.266Z,3.47
2023-02-02T06:44:47.512Z,6.13
2023-02-02T06:47:13.942Z,10.43
2023-02-02T06:49:40.348Z,5.20
2023-02-02T06:52:07.663Z,4.10
2023-02-02T06:54:34.092Z,6.55
2023-02-02T06:57:02.278Z,5.35
2023-02-02T06:59:28.637Z,2.72
2023-02-02T07:01:55.109Z,1.83
2023-02-02T07:04:21.827Z,3.45
2023-02-02T07:06:48.509Z,3.97
2023-02-02T07:09:16.113Z,4.97
2023-02-02T07:11:45.433Z,5.20
2023-02-02T07:14:12.277Z,6.72
2023-02-02T07:16:38.754Z,3.50
2023-02-02T07:19:05.393Z,7.10
2023-02-02T07:21:35.942Z,5.20
2023-02-02T07:24:03.801Z,5.00
2023-02-02T07:26:30.265Z,8.07
2023-02-02T07:28:59.679Z,4.80
2023-02-02T07:31:27.168Z,4.75
2023-02-02T07:33:54.396Z,3.65
2023-02-02T07:36:23.756Z,11.27
2023-02-02T07:38:53.806Z,8.18
2023-02-02T07:41:20.729Z,9.73
2023-02-02T07:43:48.313Z,5.57
2023-02-02T07:46:24.936Z,6.93
2023-02-02T07:48:54.903Z,6.28
2023-02-02T07:51:25.602Z,6.00
2023-02-02T07:53:54.307Z,9.80
2023-02-02T07:56:23.849Z,3.60
2023-02-02T07:58:54.093Z,4.90
2023-02-02T08:01:22.998Z,2.90
2023-02-02T08:06:22.855Z,3.72
2023-02-02T08:08:50.202Z,3.63
2023-02-02T08:11:19.532Z,10.20
2023-02-02T08:13:49.437Z,5.57
2023-02-02T08:16:16.683Z,8.65
2023-02-02T08:18:43.946Z,9.68
2023-02-02T08:21:11.157Z,5.97
2023-02-02T08:23:50.093Z,14.65
2023-02-02T08:26:25.420Z,8.15
2023-02-02T08:29:07.867Z,8.57
2023-02-02T08:31:41.693Z,9.38
2023-02-02T08:34:08.254Z,13.85
2023-02-02T08:36:37.475Z,13.02
2023-02-02T08:39:07.044Z,11.73
2023-02-02T08:41:33.915Z,9.60
2023-02-02T08:44:02.586Z,12.93
2023-02-02T08:46:29.243Z,15.57
2023-02-02T08:48:55.781Z,20.02
2023-02-02T08:51:22.202Z,19.23
2023-02-02T08:53:48.608Z,18.92
2023-02-02T08:56:18.316Z,24.58
2023-02-02T08:58:49.213Z,21.48
2023-02-02T09:01:16.862Z,20.42
2023-02-02T09:03:44.313Z,15.32
2023-02-02T09:06:16.304Z,14.82
2023-02-02T09:08:43.492Z,14.07
2023-02-02T09:11:18.540Z,12.77
2023-02-02T09:13:54.100Z,14.05
2023-02-02T09:21:17.659Z,13.95
2023-02-02T09:23:45.594Z,12.20
2023-02-02T09:26:17.449Z,7.78
2023-02-02T09:28:47.088Z,3.65
2023-02-02T09:31:14.392Z,4.43
2023-02-02T09:33:42.341Z,7.95
2023-02-02T09:36:14.791Z,16.80
2023-02-02T09:38:42.897Z,8.18
2023-02-02T09:41:32.359Z,7.47
2023-02-02T09:44:17.239Z,9.80
2023-02-02T09:47:23.081Z,7.63
2023-02-02T09:50:03.108Z,8.93
2023-02-02T09:52:38.961Z,7.95
2023-02-02T09:55:34.986Z,4.57
2023-02-02T09:58:12.534Z,7.15
2023-02-02T10:01:00.153Z,5.05
2023-02-02T10:03:54.521Z,7.55
2023-02-02T10:06:38.608Z,6.55
2023-02-02T10:09:29.596Z,6.38
2023-02-02T10:12:25.729Z,15.05
2023-02-02T10:15:17.764Z,7.18
2023-02-02T10:17:48.672Z,7.85
2023-02-02T10:20:21.244Z,9.07
2023-02-02T10:22:48.622Z,7.05
2023-02-02T10:25:16.886Z,6.47
2023-02-02T10:27:59.767Z,6.32
2023-02-02T10:30:39.821Z,8.65
2023-02-02T10:33:12.545Z,6.18
2023-02-02T10:35:48.144Z,6.90
2023-02-02T10:38:37.875Z,5.50
2023-02-02T10:41:31.609Z,5.90
2023-02-02T10:44:10.767Z,8.07
2023-02-02T10:46:42.843Z,9.68
2023-02-02T10:49:31.199Z,12.77
2023-02-02T10:52:23.750Z,12.38
2023-02-02T10:55:16.144Z,6.22
2023-02-02T10:57:57.894Z,11.45
2023-02-02T11:00:35.081Z,15.40
2023-02-02T11:03:04.679Z,10.00
2023-02-02T11:06:02.201Z,14.05
2023-02-02T11:08:34.980Z,7.88
2023-02-02T11:11:12.332Z,4.55
2023-02-02T11:13:46.596Z,5.25
2023-02-02T11:16:16.097Z,5.63
2023-02-02T11:18:44.388Z,7.80
2023-02-02T11:21:23.181Z,6.45
2023-02-02T11:24:23.901Z,6.72
2023-02-02T11:26:57.819Z,13.95
2023-02-02T11:29:39.659Z,17.60
2023-02-02T11:32:34.254Z,19.67
2023-02-02T11:35:29.675Z,12.80
2023-02-02T11:38:09.565Z,15.57
2023-02-02T11:40:40.499Z,12.32
2023-02-02T11:43:24.986Z,11.13
2023-02-02T11:46:18.681Z,10.13
2023-02-02T11:49:08.360Z,7.15
2023-02-02T11:51:35.041Z,10.68
2023-02-02T11:54:18.547Z,9.02
2023-02-02T11:56:51.364Z,30.63
2023-02-02T11:59:36.071Z,27.48
2023-02-02T12:02:25.004Z,37.85
2023-02-02T12:04:54.537Z,24.15
2023-02-02T12:07:30.144Z,21.50
2023-02-02T12:10:04.757Z,23.48
2023-02-02T12:12:49.412Z,24.25
2023-02-02T12:15:28.055Z,25.15
2023-02-02T12:18:25.434Z,19.50
2023-02-02T12:21:04.667Z,23.90
2023-02-02T12:24:14.108Z,15.73
2023-02-02T12:26:46.399Z,15.38
2023-02-02T12:29:41.427Z,13.85
2023-02-02T12:32:45.095Z,17.92
2023-02-02T12:35:35.480Z,39.10
2023-02-02T12:38:13.813Z,45.75
2023-02-02T12:41:01.050Z,30.30
2023-02-02T12:44:02.822Z,31.65
2023-02-02T12:47:04.176Z,48.58
2023-02-02T12:52:05.972Z,10.27
2023-02-02T12:54:53.640Z,63.35
2023-02-02T12:57:47.382Z,63.47
2023-02-02T13:00:39.606Z,48.85
2023-02-02T13:03:30.818Z,39.90
2023-02-02T13:06:16.617Z,47.83
2023-02-02T13:09:01.554Z,128.10
2023-02-02T13:11:52.130Z,12.73
2023-02-02T13:14:30.767Z,82.28
2023-02-02T13:17:02.627Z,151.85
2023-02-02T13:20:02.219Z,66.90
2023-02-02T13:22:41.150Z,46.70
2023-02-02T13:25:19.671Z,36.13
2023-02-02T13:27:49.624Z,29.35
2023-02-02T13:30:36.339Z,21.85
2023-02-02T13:33:25.931Z,6.50
2023-02-02T13:36:25.900Z,7.90
2023-02-02T13:39:03.555Z,24.92
2023-02-02T13:41:31.418Z,12.82
2023-02-02T13:44:07.526Z,53.17
2023-02-02T13:46:52.868Z,29.75
2023-02-02T13:49:28.993Z,31.00
2023-02-02T13:52:38.479Z,14.73
2023-02-02T13:55:51.424Z,18.98
2023-02-02T13:58:34.084Z,9.57
2023-02-02T14:01:04.886Z,8.30
2023-02-02T14:03:41.526Z,19.25
2023-02-02T14:06:15.331Z,11.05
2023-02-02T14:09:06.237Z,10.30
2023-02-02T14:11:35.548Z,11.93
2023-02-02T14:14:35.157Z,10.73
2023-02-02T14:17:22.181Z,20.52
2023-02-02T14:19:57.225Z,11.98
2023-02-02T14:22:45.302Z,30.23
2023-02-02T14:25:42.754Z,15.00
2023-02-02T14:28:12.240Z,36.25
2023-02-02T14:30:39.810Z,39.60
2023-02-02T14:33:37.067Z,25.42
2023-02-02T14:36:05.435Z,14.52
2023-02-02T14:38:55.703Z,14.48
2023-02-02T14:42:08.025Z,11.20
2023-02-02T14:44:37.523Z,13.75
2023-02-02T14:47:04.212Z,7.03
2023-02-02T14:49:35.586Z,28.02
2023-02-02T14:52:05.191Z,14.93
2023-02-02T14:54:36.144Z,18.70
2023-02-02T14:57:06.609Z,46.22
2023-02-02T14:59:35.855Z,87.85
2023-02-02T15:02:07.164Z,62.33
2023-02-02T15:04:33.721Z,74.85
2023-02-02T15:07:24.220Z,36.97
2023-02-02T15:10:01.120Z,97.65
2023-02-02T15:12:37.971Z,86.43
2023-02-02T15:15:20.217Z,50.10
2023-02-02T15:18:12.948Z,56.80
2023-02-02T15:20:49.607Z,50.65
2023-02-02T15:23:27.298Z,38.70
2023-02-02T15:26:06.663Z,44.88
2023-02-02T15:28:43.237Z,43.92
2023-02-02T15:31:29.319Z,30.42
2023-02-02T15:33:59.537Z,14.55
2023-02-02T15:36:35.629Z,14.77
2023-02-02T15:39:10.627Z,29.50
2023-02-02T15:41:43.189Z,20.17
2023-02-02T15:44:20.170Z,29.15
2023-02-02T15:46:48.702Z,19.58
2023-02-02T15:49:32.772Z,20.73
2023-02-02T15:52:03.329Z,16.70
2023-02-02T15:54:37.918Z,22.58
2023-02-02T15:57:25.984Z,13.23
2023-02-02T15:59:52.423Z,22.80
2023-02-02T16:02:40.871Z,13.93
2023-02-02T16:08:08.208Z,13.50
2023-02-02T16:10:35.329Z,13.98
2023-02-02T16:13:02.447Z,16.50
2023-02-02T16:15:31.754Z,15.98
2023-02-02T16:18:07.909Z,22.27
2023-02-02T16:20:37.156Z,27.27
2023-02-02T16:23:10.275Z,21.33
2023-02-02T16:25:48.291Z,65.25
2023-02-02T16:28:18.346Z,39.38
2023-02-02T16:30:45.642Z,12.70
2023-02-02T16:33:40.879Z,51.00
2023-02-02T16:36:31.865Z,27.65
2023-02-02T16:39:01.832Z,16.25
2023-02-02T16:41:29.866Z,21.98
2023-02-02T16:43:56.324Z,28.75
2023-02-02T16:46:42.949Z,21.42
2023-02-02T16:49:18.190Z,8.23
2023-02-02T16:51:47.271Z,7.85
2023-02-02T16:56:47.692Z,8.68
2023-02-02T16:59:14.053Z,11.60
2023-02-02T17:01:43.632Z,10.05
2023-02-02T17:04:24.282Z,18.48
2023-02-02T17:06:53.389Z,14.82
2023-02-02T17:09:35.561Z,14.75
2023-02-02T17:12:33.608Z,11.48
2023-02-02T17:15:22.647Z,25.88
2023-02-02T17:17:49.505Z,27.13
2023-02-02T17:20:19.864Z,14.15
2023-02-02T17:22:53.252Z,18.30
2023-02-02T17:25:27.616Z,19.30
2023-02-02T17:27:55.623Z,18.42
2023-02-02T17:30:22.301Z,15.43
2023-02-02T17:32:48.717Z,11.98
2023-02-02T17:35:26.378Z,16.73
2023-02-02T17:37:53.830Z,15.18
2023-02-02T17:40:22.458Z,19.98
2023-02-02T17:42:51.606Z,16.55
2023-02-02T17:45:34.171Z,17.25
2023-02-02T17:48:01.755Z,15.88
2023-02-02T17:50:29.595Z,20.40
2023-02-02T17:52:56.447Z,23.33
2023-02-02T17:55:25.872Z,21.15
2023-02-02T17:57:53.722Z,20.27
2023-02-02T18:00:22.867Z,16.83
2023-02-02T18:02:55.793Z,14.35
2023-02-02T18:05:23.489Z,14.23
2023-02-02T18:07:50.169Z,24.25
2023-02-02T18:10:19.229Z,20.10
2023-02-02T18:15:14.597Z,22.60
2023-02-02T18:20:08.417Z,16.85
2023-02-02T18:22:34.874Z,14.35
2023-02-02T18:25:01.333Z,14.93
2023-02-02T18:27:29.760Z,14.65
2023-02-02T18:29:56.222Z,14.88
2023-02-02T18:32:22.737Z,13.50
2023-02-02T18:34:54.879Z,10.20
2023-02-02T18:37:24.018Z,17.15
2023-02-02T18:39:50.650Z,12.45
2023-02-02T18:42:17.240Z,12.73
2023-02-02T18:44:44.859Z,12.70
2023-02-02T18:47:11.307Z,17.98
2023-02-02T18:49:37.737Z,16.83
2023-02-02T18:52:04.271Z,14.93
2023-02-02T18:54:30.703Z,17.50
2023-02-02T18:56:57.096Z,16.90
2023-02-02T18:59:23.539Z,13.50
2023-02-02T19:01:50.028Z,13.45
2023-02-02T19:04:16.589Z,11.27
2023-02-02T19:07:01.773Z,10.70
2023-02-02T19:09:29.460Z,9.50
2023-02-02T19:11:56.276Z,19.58
2023-02-02T19:14:28.139Z,12.10
2023-02-02T19:17:00.406Z,9.07
2023-02-02T19:19:30.285Z,11.60
2023-02-02T19:21:58.870Z,12.07
2023-02-02T19:24:27.175Z,13.30
2023-02-02T19:26:54.049Z,12.25
2023-02-02T19:29:25.692Z,14.93
2023-02-02T19:32:09.118Z,20.60
2023-02-02T19:34:35.570Z,20.05
2023-02-02T19:37:14.025Z,19.55
2023-02-02T19:39:40.738Z,15.48
2023-02-02T19:42:10.748Z,19.02
2023-02-02T19:44:38.891Z,14.60
2023-02-02T19:47:27.649Z,23.70
2023-02-02T19:49:54.088Z,13.35
2023-02-02T19:52:24.467Z,10.40
2023-02-02T19:54:53.047Z,10.45
2023-02-02T19:57:21.290Z,8.15
2023-02-02T19:59:50.879Z,8.60
2023-02-02T20:02:49.551Z,8.43
2023-02-02T20:05:23.477Z,7.93
2023-02-02T20:07:57.931Z,12.00
2023-02-02T20:10:35.989Z,9.95
2023-02-02T20:13:12.472Z,11.00
2023-02-02T20:15:39.406Z,12.48
2023-02-02T20:18:13.660Z,13.80
2023-02-02T20:20:43.300Z,18.30
2023-02-02T20:23:20.536Z,13.98
2023-02-02T20:25:46.996Z,15.13
2023-02-02T20:28:32.835Z,14.45
2023-02-02T20:31:05.254Z,14.73
2023-02-02T20:33:33.179Z,17.02
2023-02-02T20:36:02.162Z,17.60
2023-02-02T20:38:38.458Z,21.85
2023-02-02T20:41:06.291Z,13.85
2023-02-02T20:43:32.693Z,14.55
2023-02-02T20:45:59.240Z,14.80
2023-02-02T20:48:27.526Z,16.42
2023-02-02T20:50:53.949Z,13.77
2023-02-02T20:53:20.461Z,14.75
2023-02-02T20:55:46.917Z,16.20
2023-02-02T20:58:13.459Z,14.80
2023-02-02T21:00:40.439Z,15.20
2023-02-02T21:03:06.850Z,15.48
2023-02-02T21:05:33.365Z,20.23
2023-02-02T21:07:59.790Z,16.55
2023-02-02T21:10:26.667Z,16.60
2023-02-02T21:12:53.285Z,16.80
2023-02-02T21:15:19.719Z,15.70
2023-02-02T21:17:46.243Z,16.38
2023-02-02T21:20:14.584Z,16.75
2023-02-02T21:22:40.982Z,19.90
2023-02-02T21:25:08.456Z,21.63
2023-02-02T21:27:35.600Z,23.05
2023-02-02T21:30:02.284Z,17.02
2023-02-02T21:32:28.698Z,14.85
2023-02-02T21:34:55.092Z,12.18
2023-02-02T21:37:21.500Z,20.77
2023-02-02T21:39:51.729Z,25.95
2023-02-02T21:42:21.290Z,23.52
2023-02-02T21:44:56.298Z,17.52
2023-02-02T21:47:26.212Z,18.17
2023-02-02T21:49:55.469Z,19.40
2023-02-02T21:52:21.875Z,15.90
2023-02-02T21:54:49.148Z,21.48
2023-02-02T21:57:21.893Z,20.70
2023-02-02T21:59:56.248Z,17.00
2023-02-02T22:02:48.174Z,14.63
2023-02-02T22:05:22.396Z,13.48
2023-02-02T22:07:50.520Z,10.32
2023-02-02T22:10:36.484Z,14.13
2023-02-02T22:13:15.655Z,14.02
2023-02-02T22:15:46.037Z,8.52
2023-02-02T22:18:23.851Z,11.05
2023-02-02T22:20:51.852Z,11.98
2023-02-02T22:23:20.652Z,12.60
2023-02-02T22:25:49.465Z,7.68
2023-02-02T22:28:28.921Z,13.82
2023-02-02T22:30:56.586Z,13.93
2023-02-02T22:33:23.660Z,9.02
2023-02-02T22:35:50.601Z,8.10
2023-02-02T22:38:20.275Z,11.95
2023-02-02T22:40:48.345Z,12.45
2023-02-02T22:43:16.244Z,10.13
2023-02-02T22:45:43.371Z,6.85
2023-02-02T22:48:10.054Z,7.45
2023-02-02T22:50:36.510Z,11.48
2023-02-02T22:53:04.422Z,11.95
2023-02-02T22:55:32.029Z,9.57
2023-02-02T22:57:58.568Z,6.70
2023-02-02T23:00:27.874Z,9.07
2023-02-02T23:02:55.346Z,8.73
2023-02-02T23:05:23.263Z,11.38
2023-02-02T23:07:50.270Z,7.47
2023-02-02T23:10:22.094Z,11.50
2023-02-02T23:12:49.536Z,11.55
2023-02-02T23:15:16.550Z,9.18
2023-02-02T23:17:42.985Z,13.73
2023-02-02T23:20:12.197Z,8.02
2023-02-02T23:22:38.794Z,9.85
2023-02-02T23:25:05.853Z,9.20
2023-02-02T23:27:32.334Z,7.78
2023-02-02T23:29:58.733Z,11.80
2023-02-02T23:32:25.434Z,10.32
2023-02-02T23:34:51.854Z,10.35
2023-02-02T23:37:18.631Z,9.20
2023-02-02T23:39:45.038Z,8.20
2023-02-02T23:42:11.431Z,8.90
2023-02-02T23:44:37.819Z,8.35
2023-02-02T23:47:04.849Z,7.85
2023-02-02T23:49:32.806Z,6.43
2023-02-02T23:51:59.765Z,7.93
2023-02-02T23:54:27.075Z,8.25
2023-02-02T23:56:53.489Z,6.60
2023-02-02T23:59:19.894Z,7.63
